首页
METAR-TAF:

METAR-TAF

机场 :

梅茨南希洛林, 法国

纬度: 48-59N, 经度: 006-15E, 海拔: 264米

当前天气观测

该预报发布于26分钟前的06:30 UTC
风速6节,风向西
温度 4°C
湿度 93%
气压 1016 hPa
能见度10公里或以上
少量云层高于1000英尺
多云层高于1800英尺
阴天层高于5600英尺

METAR: LFJL 190630Z AUTO 28006KT 9999 FEW010 BKN018 OVC056 04/03 Q1016 TEMPO BKN004

时间: 07:56 (06:56 UTC)

预报

该预报发布于1小时和56分钟前的05:00 UTC
预报有效从19日的 06点(UTC)到 20日的 06点(UTC)
风速6节,风向西北
能见度10公里或以上
少量云层高于500英尺
多云层高于2000英尺
短暂存在
从 19日的 06点(UTC)到 19日的 10点(UTC)
多云层高于400英尺
几率 40% :
短暂存在
从 19日的 10点(UTC)到 19日的 13点(UTC)
多云层高于1200英尺
成为
从 19日的 21点(UTC)到 19日的 24点(UTC)
能見度: 3000
碎片雾
短暂存在
从 20日的 01点(UTC)到 20日的 06点(UTC)
能見度: 0400
几率 30% :
短暂存在
从 20日的 01点(UTC)到 20日的 05点(UTC)
冻雾

TAF: LFJL 190500Z 1906/2006 31006KT 9999 FEW005 BKN020 TEMPO 1906/1910 BKN004 PROB40 TEMPO 1910/1913 BKN012 BECMG 1921/1924 3000 BCFG TEMPO 2001/2006 0400 FG VV/// PROB30 TEMPO 2001/2005 FZFG

超过4000个机场的气象观测和天气预报(METAR&TAF报告)。

可查询的气象台以黄色和红色小点在地图上表示。

将鼠标移到小点上方,可查看气象台名称。

然后点击查看天气观测和预报。

如需切换地图:点击带黑十字的绿色按钮放大地图;点击带横线的绿色按钮缩小地图;或者点击绿色箭头查看邻近地区的地图。


METAR-TAF: